sensor_id;sensor_type;location;lat;lon;timestamp;P1;durP1;ratioP1;P2;durP2;ratioP2
79592;SDS011;69074;45.164;9.704;2023-07-31T00:02:20;14.6;;;13.2;;
79592;SDS011;69074;45.164;9.704;2023-07-31T00:04:45;14.6;;;13.2;;
79592;SDS011;69074;45.164;9.704;2023-07-31T00:07:10;14.6;;;13.2;;
79592;SDS011;69074;45.164;9.704;2023-07-31T00:09:35;14.0;;;12.5;;
79592;SDS011;69074;45.164;9.704;2023-07-31T00:12:00;14.0;;;12.5;;
79592;SDS011;69074;45.164;9.704;2023-07-31T00:14:25;14.0;;;12.5;;
79592;SDS011;69074;45.164;9.704;2023-07-31T00:16:50;14.0;;;12.5;;
79592;SDS011;69074;45.164;9.704;2023-07-31T00:19:15;14.0;;;12.5;;
79592;SDS011;69074;45.164;9.704;2023-07-31T00:21:40;14.0;;;12.5;;
79592;SDS011;69074;45.164;9.704;2023-07-31T00:24:05;15.4;;;13.0;;
79592;SDS011;69074;45.164;9.704;2023-07-31T00:26:30;15.4;;;13.0;;
79592;SDS011;69074;45.164;9.704;2023-07-31T00:28:55;15.4;;;13.0;;
79592;SDS011;69074;45.164;9.704;2023-07-31T00:31:20;15.4;;;13.0;;
79592;SDS011;69074;45.164;9.704;2023-07-31T00:33:45;15.4;;;13.0;;
79592;SDS011;69074;45.164;9.704;2023-07-31T00:36:10;15.4;;;13.0;;
79592;SDS011;69074;45.164;9.704;2023-07-31T00:38:35;14.9;;;13.4;;
79592;SDS011;69074;45.164;9.704;2023-07-31T00:41:00;14.9;;;13.4;;
79592;SDS011;69074;45.164;9.704;2023-07-31T00:43:25;14.9;;;13.4;;
79592;SDS011;69074;45.164;9.704;2023-07-31T00:45:50;14.9;;;13.4;;
79592;SDS011;69074;45.164;9.704;2023-07-31T00:48:15;14.9;;;13.4;;
79592;SDS011;69074;45.164;9.704;2023-07-31T00:50:40;14.9;;;13.4;;
79592;SDS011;69074;45.164;9.704;2023-07-31T00:53:05;14.9;;;13.4;;
79592;SDS011;69074;45.164;9.704;2023-07-31T00:55:30;13.6;;;12.2;;
79592;SDS011;69074;45.164;9.704;2023-07-31T00:57:55;13.6;;;12.2;;
79592;SDS011;69074;45.164;9.704;2023-07-31T01:00:20;13.6;;;12.2;;
79592;SDS011;69074;45.164;9.704;2023-07-31T01:02:45;13.6;;;12.2;;
79592;SDS011;69074;45.164;9.704;2023-07-31T01:05:10;13.6;;;12.2;;
79592;SDS011;69074;45.164;9.704;2023-07-31T01:07:36;13.6;;;12.2;;
79592;SDS011;69074;45.164;9.704;2023-07-31T01:10:01;12.3;;;10.7;;
79592;SDS011;69074;45.164;9.704;2023-07-31T01:12:25;12.3;;;10.7;;
79592;SDS011;69074;45.164;9.704;2023-07-31T01:14:51;12.3;;;10.7;;
79592;SDS011;69074;45.164;9.704;2023-07-31T01:17:15;12.3;;;10.7;;
79592;SDS011;69074;45.164;9.704;2023-07-31T01:19:40;12.3;;;10.7;;
79592;SDS011;69074;45.164;9.704;2023-07-31T01:22:12;12.3;;;10.7;;
79592;SDS011;69074;45.164;9.704;2023-07-31T01:24:30;11.4;;;10.3;;
79592;SDS011;69074;45.164;9.704;2023-07-31T01:26:56;11.4;;;10.3;;
79592;SDS011;69074;45.164;9.704;2023-07-31T01:29:20;11.4;;;10.3;;
79592;SDS011;69074;45.164;9.704;2023-07-31T01:31:45;11.4;;;10.3;;
79592;SDS011;69074;45.164;9.704;2023-07-31T01:34:10;11.4;;;10.3;;
79592;SDS011;69074;45.164;9.704;2023-07-31T01:36:35;11.4;;;10.3;;
79592;SDS011;69074;45.164;9.704;2023-07-31T01:39:00;10.3;;;9.2;;
79592;SDS011;69074;45.164;9.704;2023-07-31T01:41:25;10.3;;;9.2;;
79592;SDS011;69074;45.164;9.704;2023-07-31T01:43:50;10.3;;;9.2;;
79592;SDS011;69074;45.164;9.704;2023-07-31T01:46:15;10.3;;;9.2;;
79592;SDS011;69074;45.164;9.704;2023-07-31T01:48:40;10.3;;;9.2;;
79592;SDS011;69074;45.164;9.704;2023-07-31T01:51:05;10.3;;;9.2;;
79592;SDS011;69074;45.164;9.704;2023-07-31T01:53:30;9.1;;;8.2;;
79592;SDS011;69074;45.164;9.704;2023-07-31T01:55:55;9.1;;;8.2;;
79592;SDS011;69074;45.164;9.704;2023-07-31T01:58:20;9.1;;;8.2;;
79592;SDS011;69074;45.164;9.704;2023-07-31T02:00:45;9.1;;;8.2;;
79592;SDS011;69074;45.164;9.704;2023-07-31T02:03:10;9.1;;;8.2;;
79592;SDS011;69074;45.164;9.704;2023-07-31T02:05:35;9.1;;;8.2;;
79592;SDS011;69074;45.164;9.704;2023-07-31T02:08:00;9.1;;;8.2;;
79592;SDS011;69074;45.164;9.704;2023-07-31T02:10:25;8.3;;;7.5;;
79592;SDS011;69074;45.164;9.704;2023-07-31T02:12:50;8.3;;;7.5;;
79592;SDS011;69074;45.164;9.704;2023-07-31T02:15:15;8.3;;;7.5;;
79592;SDS011;69074;45.164;9.704;2023-07-31T02:17:40;8.3;;;7.5;;
79592;SDS011;69074;45.164;9.704;2023-07-31T02:20:05;8.3;;;7.5;;
79592;SDS011;69074;45.164;9.704;2023-07-31T02:22:30;8.3;;;7.5;;
79592;SDS011;69074;45.164;9.704;2023-07-31T02:24:55;7.6;;;6.9;;
79592;SDS011;69074;45.164;9.704;2023-07-31T02:27:20;7.6;;;6.9;;
79592;SDS011;69074;45.164;9.704;2023-07-31T02:29:45;7.6;;;6.9;;
79592;SDS011;69074;45.164;9.704;2023-07-31T02:32:10;7.6;;;6.9;;
79592;SDS011;69074;45.164;9.704;2023-07-31T02:34:35;7.6;;;6.9;;
79592;SDS011;69074;45.164;9.704;2023-07-31T02:37:00;7.6;;;6.9;;
79592;SDS011;69074;45.164;9.704;2023-07-31T02:39:25;7.3;;;6.6;;
79592;SDS011;69074;45.164;9.704;2023-07-31T02:41:50;7.3;;;6.6;;
79592;SDS011;69074;45.164;9.704;2023-07-31T02:44:15;7.3;;;6.6;;
79592;SDS011;69074;45.164;9.704;2023-07-31T02:46:40;7.3;;;6.6;;
79592;SDS011;69074;45.164;9.704;2023-07-31T02:49:05;7.3;;;6.6;;
79592;SDS011;69074;45.164;9.704;2023-07-31T02:51:30;7.3;;;6.6;;
79592;SDS011;69074;45.164;9.704;2023-07-31T02:53:55;8.7;;;6.9;;
79592;SDS011;69074;45.164;9.704;2023-07-31T02:56:20;8.7;;;6.9;;
79592;SDS011;69074;45.164;9.704;2023-07-31T02:58:45;8.7;;;6.9;;
79592;SDS011;69074;45.164;9.704;2023-07-31T03:01:10;8.7;;;6.9;;
79592;SDS011;69074;45.164;9.704;2023-07-31T03:03:35;8.7;;;6.9;;
79592;SDS011;69074;45.164;9.704;2023-07-31T03:06:00;8.7;;;6.9;;
79592;SDS011;69074;45.164;9.704;2023-07-31T03:08:25;9.1;;;6.7;;
79592;SDS011;69074;45.164;9.704;2023-07-31T03:10:50;9.1;;;6.7;;
79592;SDS011;69074;45.164;9.704;2023-07-31T03:13:15;9.1;;;6.7;;
79592;SDS011;69074;45.164;9.704;2023-07-31T03:15:41;9.1;;;6.7;;
79592;SDS011;69074;45.164;9.704;2023-07-31T03:18:05;9.1;;;6.7;;
79592;SDS011;69074;45.164;9.704;2023-07-31T03:20:30;9.1;;;6.7;;
79592;SDS011;69074;45.164;9.704;2023-07-31T03:22:55;9.1;;;6.7;;
79592;SDS011;69074;45.164;9.704;2023-07-31T03:25:20;7.7;;;7.0;;
79592;SDS011;69074;45.164;9.704;2023-07-31T03:27:45;7.7;;;7.0;;
79592;SDS011;69074;45.164;9.704;2023-07-31T03:30:10;7.7;;;7.0;;
79592;SDS011;69074;45.164;9.704;2023-07-31T03:32:35;7.7;;;7.0;;
79592;SDS011;69074;45.164;9.704;2023-07-31T03:35:00;7.7;;;7.0;;
79592;SDS011;69074;45.164;9.704;2023-07-31T03:37:25;7.7;;;7.0;;
79592;SDS011;69074;45.164;9.704;2023-07-31T03:39:50;8.4;;;6.4;;
79592;SDS011;69074;45.164;9.704;2023-07-31T03:42:15;8.4;;;6.4;;
79592;SDS011;69074;45.164;9.704;2023-07-31T03:44:40;8.4;;;6.4;;
79592;SDS011;69074;45.164;9.704;2023-07-31T03:47:05;8.4;;;6.4;;
79592;SDS011;69074;45.164;9.704;2023-07-31T03:49:30;8.4;;;6.4;;
79592;SDS011;69074;45.164;9.704;2023-07-31T03:51:55;8.4;;;6.4;;
79592;SDS011;69074;45.164;9.704;2023-07-31T03:54:20;7.6;;;6.8;;
79592;SDS011;69074;45.164;9.704;2023-07-31T03:56:45;7.6;;;6.8;;
79592;SDS011;69074;45.164;9.704;2023-07-31T03:59:10;7.6;;;6.8;;
79592;SDS011;69074;45.164;9.704;2023-07-31T04:01:35;7.6;;;6.8;;
79592;SDS011;69074;45.164;9.704;2023-07-31T04:04:00;7.6;;;6.8;;
79592;SDS011;69074;45.164;9.704;2023-07-31T04:06:25;7.6;;;6.8;;
79592;SDS011;69074;45.164;9.704;2023-07-31T04:08:50;8.0;;;6.2;;
79592;SDS011;69074;45.164;9.704;2023-07-31T04:11:15;8.0;;;6.2;;
79592;SDS011;69074;45.164;9.704;2023-07-31T04:13:40;8.0;;;6.2;;
79592;SDS011;69074;45.164;9.704;2023-07-31T04:16:05;8.0;;;6.2;;
79592;SDS011;69074;45.164;9.704;2023-07-31T04:18:30;8.0;;;6.2;;
79592;SDS011;69074;45.164;9.704;2023-07-31T04:20:55;8.0;;;6.2;;
79592;SDS011;69074;45.164;9.704;2023-07-31T04:23:20;7.7;;;6.9;;
79592;SDS011;69074;45.164;9.704;2023-07-31T04:25:45;7.7;;;6.9;;
79592;SDS011;69074;45.164;9.704;2023-07-31T04:28:10;7.7;;;6.9;;
79592;SDS011;69074;45.164;9.704;2023-07-31T04:30:35;7.7;;;6.9;;
79592;SDS011;69074;45.164;9.704;2023-07-31T04:33:00;7.7;;;6.9;;
79592;SDS011;69074;45.164;9.704;2023-07-31T04:35:25;7.7;;;6.9;;
79592;SDS011;69074;45.164;9.704;2023-07-31T04:37:50;7.7;;;6.9;;
79592;SDS011;69074;45.164;9.704;2023-07-31T04:40:15;8.9;;;6.7;;
79592;SDS011;69074;45.164;9.704;2023-07-31T04:42:40;8.9;;;6.7;;
79592;SDS011;69074;45.164;9.704;2023-07-31T04:45:05;8.9;;;6.7;;
79592;SDS011;69074;45.164;9.704;2023-07-31T04:47:30;8.9;;;6.7;;
79592;SDS011;69074;45.164;9.704;2023-07-31T04:49:55;8.9;;;6.7;;
79592;SDS011;69074;45.164;9.704;2023-07-31T04:52:20;8.9;;;6.7;;
79592;SDS011;69074;45.164;9.704;2023-07-31T04:54:45;8.6;;;7.7;;
79592;SDS011;69074;45.164;9.704;2023-07-31T04:57:10;8.6;;;7.7;;
79592;SDS011;69074;45.164;9.704;2023-07-31T04:59:35;8.6;;;7.7;;
79592;SDS011;69074;45.164;9.704;2023-07-31T05:02:00;8.6;;;7.7;;
79592;SDS011;69074;45.164;9.704;2023-07-31T05:04:25;8.6;;;7.7;;
79592;SDS011;69074;45.164;9.704;2023-07-31T05:06:50;8.6;;;7.7;;
79592;SDS011;69074;45.164;9.704;2023-07-31T05:09:15;7.5;;;6.7;;
79592;SDS011;69074;45.164;9.704;2023-07-31T05:11:40;7.5;;;6.7;;
79592;SDS011;69074;45.164;9.704;2023-07-31T05:14:05;7.5;;;6.7;;
79592;SDS011;69074;45.164;9.704;2023-07-31T05:16:30;7.5;;;6.7;;
79592;SDS011;69074;45.164;9.704;2023-07-31T05:18:55;7.5;;;6.7;;
79592;SDS011;69074;45.164;9.704;2023-07-31T05:21:20;7.5;;;6.7;;
79592;SDS011;69074;45.164;9.704;2023-07-31T05:23:45;10.1;;;7.3;;
79592;SDS011;69074;45.164;9.704;2023-07-31T05:26:10;10.1;;;7.3;;
79592;SDS011;69074;45.164;9.704;2023-07-31T05:28:35;10.1;;;7.3;;
79592;SDS011;69074;45.164;9.704;2023-07-31T05:31:00;10.1;;;7.3;;
79592;SDS011;69074;45.164;9.704;2023-07-31T05:33:25;10.1;;;7.3;;
79592;SDS011;69074;45.164;9.704;2023-07-31T05:35:50;10.1;;;7.3;;
79592;SDS011;69074;45.164;9.704;2023-07-31T05:38:15;10.1;;;7.3;;
79592;SDS011;69074;45.164;9.704;2023-07-31T05:40:40;7.8;;;7.1;;
79592;SDS011;69074;45.164;9.704;2023-07-31T05:43:05;7.8;;;7.1;;
79592;SDS011;69074;45.164;9.704;2023-07-31T05:45:30;7.8;;;7.1;;
79592;SDS011;69074;45.164;9.704;2023-07-31T05:47:55;7.8;;;7.1;;
79592;SDS011;69074;45.164;9.704;2023-07-31T05:50:20;7.8;;;7.1;;
79592;SDS011;69074;45.164;9.704;2023-07-31T05:52:45;7.8;;;7.1;;
79592;SDS011;69074;45.164;9.704;2023-07-31T05:55:10;9.8;;;7.7;;
79592;SDS011;69074;45.164;9.704;2023-07-31T05:57:35;9.8;;;7.7;;
79592;SDS011;69074;45.164;9.704;2023-07-31T06:00:00;9.8;;;7.7;;
79592;SDS011;69074;45.164;9.704;2023-07-31T06:02:25;9.8;;;7.7;;
79592;SDS011;69074;45.164;9.704;2023-07-31T06:04:50;9.8;;;7.7;;
79592;SDS011;69074;45.164;9.704;2023-07-31T06:07:15;9.8;;;7.7;;
79592;SDS011;69074;45.164;9.704;2023-07-31T06:09:40;8.2;;;6.7;;
79592;SDS011;69074;45.164;9.704;2023-07-31T06:12:05;8.2;;;6.7;;
79592;SDS011;69074;45.164;9.704;2023-07-31T06:14:30;8.2;;;6.7;;
79592;SDS011;69074;45.164;9.704;2023-07-31T06:16:55;8.2;;;6.7;;
79592;SDS011;69074;45.164;9.704;2023-07-31T06:19:20;8.2;;;6.7;;
79592;SDS011;69074;45.164;9.704;2023-07-31T06:21:45;8.2;;;6.7;;
79592;SDS011;69074;45.164;9.704;2023-07-31T06:24:10;8.7;;;7.0;;
79592;SDS011;69074;45.164;9.704;2023-07-31T06:26:35;8.7;;;7.0;;
79592;SDS011;69074;45.164;9.704;2023-07-31T06:29:00;8.7;;;7.0;;
79592;SDS011;69074;45.164;9.704;2023-07-31T06:31:25;8.7;;;7.0;;
79592;SDS011;69074;45.164;9.704;2023-07-31T06:33:51;8.7;;;7.0;;
79592;SDS011;69074;45.164;9.704;2023-07-31T06:36:15;8.7;;;7.0;;
79592;SDS011;69074;45.164;9.704;2023-07-31T06:38:40;36.4;;;32.5;;
79592;SDS011;69074;45.164;9.704;2023-07-31T06:41:05;36.4;;;32.5;;
79592;SDS011;69074;45.164;9.704;2023-07-31T06:43:30;36.4;;;32.5;;
79592;SDS011;69074;45.164;9.704;2023-07-31T06:45:55;36.4;;;32.5;;
79592;SDS011;69074;45.164;9.704;2023-07-31T06:48:20;36.4;;;32.5;;
79592;SDS011;69074;45.164;9.704;2023-07-31T06:50:45;36.4;;;32.5;;
79592;SDS011;69074;45.164;9.704;2023-07-31T06:53:10;36.4;;;32.5;;
79592;SDS011;69074;45.164;9.704;2023-07-31T06:55:35;10.8;;;9.2;;
79592;SDS011;69074;45.164;9.704;2023-07-31T06:58:00;10.8;;;9.2;;
79592;SDS011;69074;45.164;9.704;2023-07-31T07:00:25;10.8;;;9.2;;
79592;SDS011;69074;45.164;9.704;2023-07-31T07:02:50;10.8;;;9.2;;
79592;SDS011;69074;45.164;9.704;2023-07-31T07:05:15;10.8;;;9.2;;
79592;SDS011;69074;45.164;9.704;2023-07-31T07:07:41;10.8;;;9.2;;
79592;SDS011;69074;45.164;9.704;2023-07-31T07:10:05;9.4;;;7.6;;
79592;SDS011;69074;45.164;9.704;2023-07-31T07:12:30;9.4;;;7.6;;
79592;SDS011;69074;45.164;9.704;2023-07-31T07:14:55;9.4;;;7.6;;
79592;SDS011;69074;45.164;9.704;2023-07-31T07:17:20;9.4;;;7.6;;
79592;SDS011;69074;45.164;9.704;2023-07-31T07:19:45;9.4;;;7.6;;
79592;SDS011;69074;45.164;9.704;2023-07-31T07:22:10;9.4;;;7.6;;
79592;SDS011;69074;45.164;9.704;2023-07-31T07:24:35;9.7;;;6.8;;
79592;SDS011;69074;45.164;9.704;2023-07-31T07:27:00;9.7;;;6.8;;
79592;SDS011;69074;45.164;9.704;2023-07-31T07:29:25;9.7;;;6.8;;
79592;SDS011;69074;45.164;9.704;2023-07-31T07:31:50;9.7;;;6.8;;
79592;SDS011;69074;45.164;9.704;2023-07-31T07:34:15;9.7;;;6.8;;
79592;SDS011;69074;45.164;9.704;2023-07-31T07:36:40;9.7;;;6.8;;
79592;SDS011;69074;45.164;9.704;2023-07-31T07:39:05;18.3;;;15.6;;
79592;SDS011;69074;45.164;9.704;2023-07-31T07:41:30;18.3;;;15.6;;
79592;SDS011;69074;45.164;9.704;2023-07-31T07:43:55;18.3;;;15.6;;
79592;SDS011;69074;45.164;9.704;2023-07-31T07:46:20;18.3;;;15.6;;
79592;SDS011;69074;45.164;9.704;2023-07-31T07:48:45;18.3;;;15.6;;
79592;SDS011;69074;45.164;9.704;2023-07-31T07:51:10;18.3;;;15.6;;
79592;SDS011;69074;45.164;9.704;2023-07-31T07:53:35;8.8;;;7.7;;
79592;SDS011;69074;45.164;9.704;2023-07-31T07:56:00;8.8;;;7.7;;
79592;SDS011;69074;45.164;9.704;2023-07-31T07:58:25;8.8;;;7.7;;
79592;SDS011;69074;45.164;9.704;2023-07-31T08:00:50;8.8;;;7.7;;
79592;SDS011;69074;45.164;9.704;2023-07-31T08:03:15;8.8;;;7.7;;
79592;SDS011;69074;45.164;9.704;2023-07-31T08:05:40;8.8;;;7.7;;
79592;SDS011;69074;45.164;9.704;2023-07-31T08:08:05;8.8;;;7.7;;
79592;SDS011;69074;45.164;9.704;2023-07-31T08:10:30;6.3;;;3.5;;
79592;SDS011;69074;45.164;9.704;2023-07-31T08:12:55;6.3;;;3.5;;
79592;SDS011;69074;45.164;9.704;2023-07-31T08:15:20;6.3;;;3.5;;
79592;SDS011;69074;45.164;9.704;2023-07-31T08:17:45;6.3;;;3.5;;
79592;SDS011;69074;45.164;9.704;2023-07-31T08:20:10;6.3;;;3.5;;
79592;SDS011;69074;45.164;9.704;2023-07-31T08:22:35;6.3;;;3.5;;
79592;SDS011;69074;45.164;9.704;2023-07-31T08:25:00;4.1;;;3.0;;
79592;SDS011;69074;45.164;9.704;2023-07-31T08:27:25;4.1;;;3.0;;
79592;SDS011;69074;45.164;9.704;2023-07-31T08:29:51;4.1;;;3.0;;
79592;SDS011;69074;45.164;9.704;2023-07-31T08:32:15;4.1;;;3.0;;
79592;SDS011;69074;45.164;9.704;2023-07-31T08:34:40;4.1;;;3.0;;
79592;SDS011;69074;45.164;9.704;2023-07-31T08:37:05;4.1;;;3.0;;
79592;SDS011;69074;45.164;9.704;2023-07-31T08:39:30;4.1;;;2.8;;
79592;SDS011;69074;45.164;9.704;2023-07-31T08:41:57;4.1;;;2.8;;
79592;SDS011;69074;45.164;9.704;2023-07-31T08:44:20;4.1;;;2.8;;
79592;SDS011;69074;45.164;9.704;2023-07-31T08:46:45;4.1;;;2.8;;
79592;SDS011;69074;45.164;9.704;2023-07-31T08:49:10;4.1;;;2.8;;
79592;SDS011;69074;45.164;9.704;2023-07-31T08:51:35;4.1;;;2.8;;
79592;SDS011;69074;45.164;9.704;2023-07-31T08:54:00;5.8;;;3.4;;
79592;SDS011;69074;45.164;9.704;2023-07-31T08:56:25;5.8;;;3.4;;
79592;SDS011;69074;45.164;9.704;2023-07-31T08:58:50;5.8;;;3.4;;
79592;SDS011;69074;45.164;9.704;2023-07-31T09:01:15;5.8;;;3.4;;
79592;SDS011;69074;45.164;9.704;2023-07-31T09:03:40;5.8;;;3.4;;
79592;SDS011;69074;45.164;9.704;2023-07-31T09:06:05;5.8;;;3.4;;
79592;SDS011;69074;45.164;9.704;2023-07-31T09:08:30;4.0;;;2.7;;
79592;SDS011;69074;45.164;9.704;2023-07-31T09:10:57;4.0;;;2.7;;
79592;SDS011;69074;45.164;9.704;2023-07-31T09:13:20;4.0;;;2.7;;
79592;SDS011;69074;45.164;9.704;2023-07-31T09:15:45;4.0;;;2.7;;
79592;SDS011;69074;45.164;9.704;2023-07-31T09:18:10;4.0;;;2.7;;
79592;SDS011;69074;45.164;9.704;2023-07-31T09:20:35;4.0;;;2.7;;
79592;SDS011;69074;45.164;9.704;2023-07-31T09:23:04;4.0;;;2.7;;
79592;SDS011;69074;45.164;9.704;2023-07-31T09:25:25;3.1;;;2.6;;
79592;SDS011;69074;45.164;9.704;2023-07-31T09:27:50;3.1;;;2.6;;
79592;SDS011;69074;45.164;9.704;2023-07-31T09:30:15;3.1;;;2.6;;
79592;SDS011;69074;45.164;9.704;2023-07-31T09:32:40;3.1;;;2.6;;
79592;SDS011;69074;45.164;9.704;2023-07-31T09:35:12;3.1;;;2.6;;
79592;SDS011;69074;45.164;9.704;2023-07-31T09:37:30;3.1;;;2.6;;
79592;SDS011;69074;45.164;9.704;2023-07-31T09:39:55;4.8;;;3.4;;
79592;SDS011;69074;45.164;9.704;2023-07-31T09:42:24;4.8;;;3.4;;
79592;SDS011;69074;45.164;9.704;2023-07-31T09:44:45;4.8;;;3.4;;
79592;SDS011;69074;45.164;9.704;2023-07-31T09:47:20;4.8;;;3.4;;
79592;SDS011;69074;45.164;9.704;2023-07-31T09:49:35;4.8;;;3.4;;
79592;SDS011;69074;45.164;9.704;2023-07-31T09:52:00;4.8;;;3.4;;
79592;SDS011;69074;45.164;9.704;2023-07-31T09:54:25;2.9;;;2.2;;
79592;SDS011;69074;45.164;9.704;2023-07-31T09:56:50;2.9;;;2.2;;
79592;SDS011;69074;45.164;9.704;2023-07-31T09:59:15;2.9;;;2.2;;
79592;SDS011;69074;45.164;9.704;2023-07-31T10:01:40;2.9;;;2.2;;
79592;SDS011;69074;45.164;9.704;2023-07-31T10:04:05;2.9;;;2.2;;
79592;SDS011;69074;45.164;9.704;2023-07-31T10:06:30;2.9;;;2.2;;
79592;SDS011;69074;45.164;9.704;2023-07-31T10:08:55;4.2;;;3.4;;
79592;SDS011;69074;45.164;9.704;2023-07-31T10:11:20;4.2;;;3.4;;
79592;SDS011;69074;45.164;9.704;2023-07-31T10:13:45;4.2;;;3.4;;
79592;SDS011;69074;45.164;9.704;2023-07-31T10:16:10;4.2;;;3.4;;
79592;SDS011;69074;45.164;9.704;2023-07-31T10:18:35;4.2;;;3.4;;
79592;SDS011;69074;45.164;9.704;2023-07-31T10:21:00;4.2;;;3.4;;
79592;SDS011;69074;45.164;9.704;2023-07-31T10:23:25;3.4;;;2.6;;
79592;SDS011;69074;45.164;9.704;2023-07-31T10:25:50;3.4;;;2.6;;
79592;SDS011;69074;45.164;9.704;2023-07-31T10:28:15;3.4;;;2.6;;
79592;SDS011;69074;45.164;9.704;2023-07-31T10:30:40;3.4;;;2.6;;
79592;SDS011;69074;45.164;9.704;2023-07-31T10:33:05;3.4;;;2.6;;
79592;SDS011;69074;45.164;9.704;2023-07-31T10:35:30;3.4;;;2.6;;
79592;SDS011;69074;45.164;9.704;2023-07-31T10:37:55;3.4;;;2.6;;
79592;SDS011;69074;45.164;9.704;2023-07-31T10:40:23;3.5;;;2.9;;
79592;SDS011;69074;45.164;9.704;2023-07-31T10:42:45;3.5;;;2.9;;
79592;SDS011;69074;45.164;9.704;2023-07-31T10:45:10;3.5;;;2.9;;
79592;SDS011;69074;45.164;9.704;2023-07-31T10:47:36;3.5;;;2.9;;
79592;SDS011;69074;45.164;9.704;2023-07-31T10:50:32;3.5;;;2.9;;
79592;SDS011;69074;45.164;9.704;2023-07-31T10:52:25;3.5;;;2.9;;
79592;SDS011;69074;45.164;9.704;2023-07-31T10:54:50;5.6;;;3.4;;
79592;SDS011;69074;45.164;9.704;2023-07-31T10:57:19;5.6;;;3.4;;
79592;SDS011;69074;45.164;9.704;2023-07-31T10:59:40;5.6;;;3.4;;
79592;SDS011;69074;45.164;9.704;2023-07-31T11:02:05;5.6;;;3.4;;
79592;SDS011;69074;45.164;9.704;2023-07-31T11:04:30;5.6;;;3.4;;
79592;SDS011;69074;45.164;9.704;2023-07-31T11:06:55;5.6;;;3.4;;
79592;SDS011;69074;45.164;9.704;2023-07-31T11:09:20;4.1;;;3.2;;
79592;SDS011;69074;45.164;9.704;2023-07-31T11:11:45;4.1;;;3.2;;
79592;SDS011;69074;45.164;9.704;2023-07-31T11:14:10;4.1;;;3.2;;
79592;SDS011;69074;45.164;9.704;2023-07-31T11:16:35;4.1;;;3.2;;
79592;SDS011;69074;45.164;9.704;2023-07-31T11:19:00;4.1;;;3.2;;
79592;SDS011;69074;45.164;9.704;2023-07-31T11:21:25;4.1;;;3.2;;
79592;SDS011;69074;45.164;9.704;2023-07-31T11:23:50;3.8;;;3.0;;
79592;SDS011;69074;45.164;9.704;2023-07-31T11:26:15;3.8;;;3.0;;
79592;SDS011;69074;45.164;9.704;2023-07-31T11:28:40;3.8;;;3.0;;
79592;SDS011;69074;45.164;9.704;2023-07-31T11:31:05;3.8;;;3.0;;
79592;SDS011;69074;45.164;9.704;2023-07-31T11:33:30;3.8;;;3.0;;
79592;SDS011;69074;45.164;9.704;2023-07-31T11:35:55;3.8;;;3.0;;
79592;SDS011;69074;45.164;9.704;2023-07-31T11:38:21;3.4;;;3.1;;
79592;SDS011;69074;45.164;9.704;2023-07-31T11:40:45;3.4;;;3.1;;
79592;SDS011;69074;45.164;9.704;2023-07-31T11:43:10;3.4;;;3.1;;
79592;SDS011;69074;45.164;9.704;2023-07-31T11:45:35;3.4;;;3.1;;
79592;SDS011;69074;45.164;9.704;2023-07-31T11:48:00;3.4;;;3.1;;
79592;SDS011;69074;45.164;9.704;2023-07-31T11:50:25;3.4;;;3.1;;
79592;SDS011;69074;45.164;9.704;2023-07-31T11:52:50;3.4;;;3.1;;
79592;SDS011;69074;45.164;9.704;2023-07-31T11:55:15;3.9;;;3.3;;
79592;SDS011;69074;45.164;9.704;2023-07-31T11:57:40;3.9;;;3.3;;
79592;SDS011;69074;45.164;9.704;2023-07-31T12:00:05;3.9;;;3.3;;
79592;SDS011;69074;45.164;9.704;2023-07-31T12:02:30;3.9;;;3.3;;
79592;SDS011;69074;45.164;9.704;2023-07-31T12:04:55;3.9;;;3.3;;
79592;SDS011;69074;45.164;9.704;2023-07-31T12:07:20;3.9;;;3.3;;
79592;SDS011;69074;45.164;9.704;2023-07-31T12:09:52;4.5;;;3.6;;
79592;SDS011;69074;45.164;9.704;2023-07-31T12:12:10;4.5;;;3.6;;
79592;SDS011;69074;45.164;9.704;2023-07-31T12:14:35;4.5;;;3.6;;
79592;SDS011;69074;45.164;9.704;2023-07-31T12:17:00;4.5;;;3.6;;
79592;SDS011;69074;45.164;9.704;2023-07-31T12:19:25;4.5;;;3.6;;
79592;SDS011;69074;45.164;9.704;2023-07-31T12:21:50;4.5;;;3.6;;
79592;SDS011;69074;45.164;9.704;2023-07-31T12:24:17;3.9;;;3.6;;
79592;SDS011;69074;45.164;9.704;2023-07-31T12:26:40;3.9;;;3.6;;
79592;SDS011;69074;45.164;9.704;2023-07-31T12:29:05;3.9;;;3.6;;
79592;SDS011;69074;45.164;9.704;2023-07-31T12:31:30;3.9;;;3.6;;
79592;SDS011;69074;45.164;9.704;2023-07-31T12:33:55;3.9;;;3.6;;
79592;SDS011;69074;45.164;9.704;2023-07-31T12:36:21;3.9;;;3.6;;
79592;SDS011;69074;45.164;9.704;2023-07-31T12:38:45;4.0;;;3.6;;
79592;SDS011;69074;45.164;9.704;2023-07-31T12:41:10;4.0;;;3.6;;
79592;SDS011;69074;45.164;9.704;2023-07-31T12:43:35;4.0;;;3.6;;
79592;SDS011;69074;45.164;9.704;2023-07-31T12:46:00;4.0;;;3.6;;
79592;SDS011;69074;45.164;9.704;2023-07-31T12:48:25;4.0;;;3.6;;
79592;SDS011;69074;45.164;9.704;2023-07-31T12:50:50;4.0;;;3.6;;
79592;SDS011;69074;45.164;9.704;2023-07-31T12:53:15;4.0;;;3.6;;
79592;SDS011;69074;45.164;9.704;2023-07-31T12:55:40;4.5;;;3.7;;
79592;SDS011;69074;45.164;9.704;2023-07-31T12:58:05;4.5;;;3.7;;
79592;SDS011;69074;45.164;9.704;2023-07-31T13:00:30;4.5;;;3.7;;
79592;SDS011;69074;45.164;9.704;2023-07-31T13:02:55;4.5;;;3.7;;
79592;SDS011;69074;45.164;9.704;2023-07-31T13:05:20;4.5;;;3.7;;
79592;SDS011;69074;45.164;9.704;2023-07-31T13:07:45;4.5;;;3.7;;
79592;SDS011;69074;45.164;9.704;2023-07-31T13:10:10;4.7;;;3.6;;
79592;SDS011;69074;45.164;9.704;2023-07-31T13:12:35;4.7;;;3.6;;
79592;SDS011;69074;45.164;9.704;2023-07-31T13:15:00;4.7;;;3.6;;
79592;SDS011;69074;45.164;9.704;2023-07-31T13:17:25;4.7;;;3.6;;
79592;SDS011;69074;45.164;9.704;2023-07-31T13:19:50;4.7;;;3.6;;
79592;SDS011;69074;45.164;9.704;2023-07-31T13:22:15;4.7;;;3.6;;
79592;SDS011;69074;45.164;9.704;2023-07-31T13:24:40;3.6;;;3.3;;
79592;SDS011;69074;45.164;9.704;2023-07-31T13:27:05;3.6;;;3.3;;
79592;SDS011;69074;45.164;9.704;2023-07-31T13:29:30;3.6;;;3.3;;
79592;SDS011;69074;45.164;9.704;2023-07-31T13:31:55;3.6;;;3.3;;
79592;SDS011;69074;45.164;9.704;2023-07-31T13:34:20;3.6;;;3.3;;
79592;SDS011;69074;45.164;9.704;2023-07-31T13:36:45;3.6;;;3.3;;
79592;SDS011;69074;45.164;9.704;2023-07-31T13:39:10;3.6;;;3.2;;
79592;SDS011;69074;45.164;9.704;2023-07-31T13:41:35;3.6;;;3.2;;
79592;SDS011;69074;45.164;9.704;2023-07-31T13:44:00;3.6;;;3.2;;
79592;SDS011;69074;45.164;9.704;2023-07-31T13:46:25;3.6;;;3.2;;
79592;SDS011;69074;45.164;9.704;2023-07-31T13:48:50;3.6;;;3.2;;
79592;SDS011;69074;45.164;9.704;2023-07-31T13:51:15;3.6;;;3.2;;
79592;SDS011;69074;45.164;9.704;2023-07-31T13:53:40;4.2;;;3.8;;
79592;SDS011;69074;45.164;9.704;2023-07-31T13:56:05;4.2;;;3.8;;
79592;SDS011;69074;45.164;9.704;2023-07-31T13:58:30;4.2;;;3.8;;
79592;SDS011;69074;45.164;9.704;2023-07-31T14:00:55;4.2;;;3.8;;
79592;SDS011;69074;45.164;9.704;2023-07-31T14:03:20;4.2;;;3.8;;
79592;SDS011;69074;45.164;9.704;2023-07-31T14:05:45;4.2;;;3.8;;
79592;SDS011;69074;45.164;9.704;2023-07-31T14:08:10;4.2;;;3.8;;
79592;SDS011;69074;45.164;9.704;2023-07-31T14:10:35;4.2;;;3.5;;
79592;SDS011;69074;45.164;9.704;2023-07-31T14:13:00;4.2;;;3.5;;
79592;SDS011;69074;45.164;9.704;2023-07-31T14:15:25;4.2;;;3.5;;
79592;SDS011;69074;45.164;9.704;2023-07-31T14:17:50;4.2;;;3.5;;
79592;SDS011;69074;45.164;9.704;2023-07-31T14:20:15;4.2;;;3.5;;
79592;SDS011;69074;45.164;9.704;2023-07-31T14:22:40;4.2;;;3.5;;
79592;SDS011;69074;45.164;9.704;2023-07-31T14:25:05;4.6;;;3.2;;
79592;SDS011;69074;45.164;9.704;2023-07-31T14:27:30;4.6;;;3.2;;
79592;SDS011;69074;45.164;9.704;2023-07-31T14:29:55;4.6;;;3.2;;
79592;SDS011;69074;45.164;9.704;2023-07-31T14:32:20;4.6;;;3.2;;
79592;SDS011;69074;45.164;9.704;2023-07-31T14:34:45;4.6;;;3.2;;
79592;SDS011;69074;45.164;9.704;2023-07-31T14:37:10;4.6;;;3.2;;
79592;SDS011;69074;45.164;9.704;2023-07-31T14:39:35;3.5;;;3.2;;
79592;SDS011;69074;45.164;9.704;2023-07-31T14:42:00;3.5;;;3.2;;
79592;SDS011;69074;45.164;9.704;2023-07-31T14:44:25;3.5;;;3.2;;
79592;SDS011;69074;45.164;9.704;2023-07-31T14:46:50;3.5;;;3.2;;
79592;SDS011;69074;45.164;9.704;2023-07-31T14:49:15;3.5;;;3.2;;
79592;SDS011;69074;45.164;9.704;2023-07-31T14:51:40;3.5;;;3.2;;
79592;SDS011;69074;45.164;9.704;2023-07-31T14:54:05;4.1;;;3.7;;
79592;SDS011;69074;45.164;9.704;2023-07-31T14:56:30;4.1;;;3.7;;